createdAt,value
2023-01-18T00:00:25.269Z,449.08
2023-01-18T00:01:25.184Z,448.43
2023-01-18T00:02:25.207Z,448.48
2023-01-18T00:03:25.189Z,447.27
2023-01-18T00:04:25.188Z,447.46
2023-01-18T00:05:25.182Z,447.25
2023-01-18T00:06:25.188Z,447.51
2023-01-18T00:07:25.218Z,446.09
2023-01-18T00:08:25.197Z,445.9
2023-01-18T00:09:25.207Z,445.32
2023-01-18T00:10:25.195Z,443.86
2023-01-18T00:11:25.201Z,443.5
2023-01-18T00:12:25.259Z,442.93
2023-01-18T00:13:25.200Z,441.69
2023-01-18T00:14:25.206Z,441.96
2023-01-18T00:15:25.213Z,440.56
2023-01-18T00:16:25.268Z,440.34
2023-01-18T00:17:25.225Z,439.25
2023-01-18T00:18:25.211Z,438.7
2023-01-18T00:19:25.212Z,437.64
2023-01-18T00:20:25.218Z,437.01
2023-01-18T00:21:25.217Z,436.18
2023-01-18T00:22:25.236Z,435.74
2023-01-18T00:23:25.225Z,435.33
2023-01-18T00:24:25.222Z,434.73
2023-01-18T00:25:25.223Z,435.01
2023-01-18T00:26:25.231Z,432.96
2023-01-18T00:27:25.243Z,432.15
2023-01-18T00:28:25.256Z,431.41
2023-01-18T00:29:25.225Z,430.8
2023-01-18T00:30:25.236Z,430.45
2023-01-18T00:31:25.264Z,428.7
2023-01-18T00:32:25.259Z,427.07
2023-01-18T00:33:25.260Z,426.12
2023-01-18T00:34:28.258Z,425.04
2023-01-18T00:35:25.243Z,423.24
2023-01-18T00:36:25.255Z,422.96
2023-01-18T00:37:25.271Z,422.57
2023-01-18T00:38:25.242Z,422.89
2023-01-18T00:39:25.245Z,422.61
2023-01-18T00:40:25.250Z,422.07
2023-01-18T00:41:25.247Z,422.64
2023-01-18T00:42:25.271Z,421.62
2023-01-18T00:43:25.255Z,421.24
2023-01-18T00:44:25.276Z,419.34
2023-01-18T00:45:25.338Z,419
2023-01-18T00:46:25.263Z,417.27
2023-01-18T00:47:25.272Z,416.63
2023-01-18T00:48:25.253Z,415.12
2023-01-18T00:49:25.261Z,414.86
2023-01-18T00:50:25.273Z,414.3
2023-01-18T00:51:25.281Z,413.73
2023-01-18T00:52:25.296Z,413.76
2023-01-18T00:53:25.261Z,413.77
2023-01-18T00:54:25.273Z,413.25
2023-01-18T00:55:25.271Z,412.01
2023-01-18T00:56:25.284Z,411.87
2023-01-18T00:57:25.300Z,410.8
2023-01-18T00:58:25.275Z,409.97
2023-01-18T00:59:25.274Z,410.41
2023-01-18T01:00:25.297Z,410.88
2023-01-18T01:01:25.419Z,410.69
2023-01-18T01:02:25.370Z,411.9
2023-01-18T01:03:25.282Z,412.29
2023-01-18T01:04:25.309Z,413.12
2023-01-18T01:05:25.279Z,412.7
2023-01-18T01:06:25.289Z,413.72
2023-01-18T01:07:25.307Z,413.92
2023-01-18T01:08:25.283Z,413.71
2023-01-18T01:09:25.302Z,414.77
2023-01-18T01:10:25.296Z,414.36
2023-01-18T01:11:25.295Z,413.72
2023-01-18T01:12:25.328Z,413.98
2023-01-18T01:13:25.300Z,412.79
2023-01-18T01:14:25.299Z,413.03
2023-01-18T01:15:25.301Z,413.06
2023-01-18T01:16:25.523Z,412.67
2023-01-18T01:17:25.329Z,412.6
2023-01-18T01:18:25.302Z,413.23
2023-01-18T01:19:25.301Z,412.79
2023-01-18T01:20:25.306Z,413.22
2023-01-18T01:21:25.312Z,413.41
2023-01-18T01:22:25.334Z,413.66
2023-01-18T01:23:25.315Z,413.04
2023-01-18T01:24:25.317Z,414
2023-01-18T01:25:25.319Z,412.94
2023-01-18T01:26:25.321Z,413.16
2023-01-18T01:27:25.340Z,413.81
2023-01-18T01:28:25.328Z,413.37
2023-01-18T01:29:25.316Z,413.39
2023-01-18T01:30:25.357Z,412.82
2023-01-18T01:31:25.335Z,413.45
2023-01-18T01:32:25.426Z,413.19
2023-01-18T01:33:25.324Z,413.14
2023-01-18T01:34:25.330Z,413.36
2023-01-18T01:35:25.324Z,413.79
2023-01-18T01:36:25.335Z,414.14
2023-01-18T01:37:25.359Z,413.93
2023-01-18T01:38:25.329Z,413.95
2023-01-18T01:39:25.362Z,413.58
2023-01-18T01:40:25.332Z,413.57
2023-01-18T01:41:25.341Z,412.92
2023-01-18T01:42:25.369Z,413.22
2023-01-18T01:43:25.341Z,413.2
2023-01-18T01:44:25.341Z,412.97
2023-01-18T01:45:28.159Z,412.59
2023-01-18T01:46:25.392Z,412.82
2023-01-18T01:47:25.375Z,411.14
2023-01-18T01:48:25.370Z,410.94
2023-01-18T01:49:25.363Z,411.17
2023-01-18T01:50:25.351Z,410.38
2023-01-18T01:51:25.359Z,410.81
2023-01-18T01:52:25.375Z,409.75
2023-01-18T01:53:25.357Z,409.81
2023-01-18T01:54:25.360Z,408.73
2023-01-18T01:55:25.377Z,408.97
2023-01-18T01:56:28.448Z,409.16
2023-01-18T01:57:25.393Z,408.31
2023-01-18T01:58:25.368Z,408.1
2023-01-18T01:59:25.367Z,409.06
2023-01-18T02:00:25.368Z,408.7
2023-01-18T02:01:25.453Z,409.48
2023-01-18T02:02:28.410Z,408.84
2023-01-18T02:03:25.384Z,409.59
2023-01-18T02:04:25.486Z,409.42
2023-01-18T02:05:25.379Z,409.57
2023-01-18T02:06:25.376Z,409.56
2023-01-18T02:07:26.895Z,410.02
2023-01-18T02:08:25.376Z,409.98
2023-01-18T02:09:25.377Z,410.61
2023-01-18T02:10:25.383Z,411.08
2023-01-18T02:11:25.389Z,412.14
2023-01-18T02:12:25.386Z,411.51
2023-01-18T02:13:25.390Z,410.91
2023-01-18T02:14:25.398Z,410.49
2023-01-18T02:15:25.390Z,409.67
2023-01-18T02:16:25.400Z,409.25
2023-01-18T02:17:25.400Z,408.43
2023-01-18T02:18:28.485Z,408.7
2023-01-18T02:19:25.412Z,409.3
2023-01-18T02:20:25.420Z,408.05
2023-01-18T02:21:25.399Z,409.06
2023-01-18T02:22:25.399Z,409.26
2023-01-18T02:23:25.400Z,409.84
2023-01-18T02:24:25.411Z,410.25
2023-01-18T02:25:25.416Z,410.59
2023-01-18T02:26:25.413Z,412.12
2023-01-18T02:27:25.420Z,412.29
2023-01-18T02:28:25.418Z,412.89
2023-01-18T02:29:25.414Z,413.31
2023-01-18T02:30:25.418Z,413.06
2023-01-18T02:31:25.416Z,413.22
2023-01-18T02:32:25.422Z,413.26
2023-01-18T02:33:25.417Z,412.85
2023-01-18T02:34:25.437Z,412.5
2023-01-18T02:35:25.426Z,412.11
2023-01-18T02:36:25.451Z,411.89
2023-01-18T02:37:25.423Z,411.09
2023-01-18T02:38:25.437Z,410.14
2023-01-18T02:39:25.433Z,409.12
2023-01-18T02:40:25.461Z,408.5
2023-01-18T02:41:25.461Z,407.69
2023-01-18T02:42:25.438Z,407.46
2023-01-18T02:43:25.435Z,407.48
2023-01-18T02:44:25.443Z,407.06
2023-01-18T02:45:25.447Z,407.53
2023-01-18T02:46:25.517Z,408.31
2023-01-18T02:47:25.439Z,409.22
2023-01-18T02:48:25.440Z,409.34
2023-01-18T02:49:25.448Z,409.8
2023-01-18T02:50:25.460Z,410.13
2023-01-18T02:51:25.454Z,410.21
2023-01-18T02:52:25.477Z,410.03
2023-01-18T02:53:25.459Z,409.37
2023-01-18T02:54:25.448Z,409.76
2023-01-18T02:55:25.485Z,409.57
2023-01-18T02:56:25.460Z,409.31
2023-01-18T02:57:25.460Z,409.95
2023-01-18T02:58:25.456Z,409.35
2023-01-18T02:59:25.472Z,410.6
2023-01-18T03:00:25.560Z,411.81
2023-01-18T03:01:25.631Z,412.32
2023-01-18T03:02:25.500Z,413.13
2023-01-18T03:03:25.478Z,414.11
2023-01-18T03:04:25.467Z,414.13
2023-01-18T03:05:25.464Z,414.29
2023-01-18T03:06:25.480Z,415.11
2023-01-18T03:07:25.480Z,414.92
2023-01-18T03:08:25.508Z,415.56
2023-01-18T03:09:25.473Z,416.39
2023-01-18T03:10:25.476Z,416.63
2023-01-18T03:11:25.478Z,416.79
2023-01-18T03:12:25.496Z,416.09
2023-01-18T03:13:25.480Z,415.93
2023-01-18T03:14:25.481Z,415.56
2023-01-18T03:15:25.486Z,414.94
2023-01-18T03:16:25.485Z,414.27
2023-01-18T03:17:25.505Z,412.79
2023-01-18T03:18:25.503Z,413.01
2023-01-18T03:19:25.494Z,412.29
2023-01-18T03:20:25.632Z,412.06
2023-01-18T03:21:25.493Z,411.21
2023-01-18T03:22:25.506Z,411.66
2023-01-18T03:23:25.501Z,411.23
2023-01-18T03:24:25.610Z,410.23
2023-01-18T03:25:25.518Z,410.47
2023-01-18T03:26:25.579Z,409.44
2023-01-18T03:27:25.521Z,409.42
2023-01-18T03:28:25.527Z,408.66
2023-01-18T03:29:25.508Z,409.11
2023-01-18T03:30:25.517Z,408.64
2023-01-18T03:31:25.507Z,409.25
2023-01-18T03:32:25.539Z,408.86
2023-01-18T03:33:25.527Z,409.06
2023-01-18T03:34:25.531Z,408.61
2023-01-18T03:35:25.532Z,408.24
2023-01-18T03:36:25.523Z,407.93
2023-01-18T03:37:25.523Z,409.43
2023-01-18T03:38:25.521Z,408.62
2023-01-18T03:39:25.548Z,409.64
2023-01-18T03:40:25.559Z,409.65
2023-01-18T03:41:25.543Z,409.32
2023-01-18T03:42:25.526Z,409.48
2023-01-18T03:43:25.699Z,409.36
2023-01-18T03:44:25.537Z,409.55
2023-01-18T03:45:25.531Z,410.24
2023-01-18T03:46:25.571Z,409.74
2023-01-18T03:47:25.545Z,408.99
2023-01-18T03:48:25.541Z,408.37
2023-01-18T03:49:25.544Z,409.38
2023-01-18T03:50:25.547Z,409.03
2023-01-18T03:51:25.592Z,409.5
2023-01-18T03:52:25.550Z,410.12
2023-01-18T03:53:25.559Z,410.1
2023-01-18T03:54:25.553Z,410.16
2023-01-18T03:55:25.549Z,410.56
2023-01-18T03:56:25.576Z,410.87
2023-01-18T03:57:25.547Z,411.11
2023-01-18T03:58:25.556Z,411.29
2023-01-18T03:59:25.558Z,411.03
2023-01-18T04:00:25.553Z,410.88
2023-01-18T04:01:25.644Z,410.56
2023-01-18T04:02:25.574Z,411.56
2023-01-18T04:03:25.563Z,411.71
2023-01-18T04:04:25.560Z,411.83
2023-01-18T04:05:25.565Z,412.48
2023-01-18T04:06:25.571Z,412.82
2023-01-18T04:07:25.581Z,414.3
2023-01-18T04:08:25.575Z,413.92
2023-01-18T04:09:25.577Z,414.22
2023-01-18T04:10:25.577Z,414.56
2023-01-18T04:11:25.571Z,414.4
2023-01-18T04:12:28.355Z,413.96
2023-01-18T04:13:25.576Z,413.93
2023-01-18T04:14:25.582Z,413.96
2023-01-18T04:15:25.589Z,414.02
2023-01-18T04:16:25.579Z,414.87
2023-01-18T04:17:25.587Z,414.47
2023-01-18T04:18:25.594Z,414.43
2023-01-18T04:19:25.586Z,413.86
2023-01-18T04:20:25.586Z,413.83
2023-01-18T04:21:25.585Z,413.79
2023-01-18T04:22:25.595Z,413.35
2023-01-18T04:23:28.423Z,413.42
2023-01-18T04:24:25.591Z,412.6
2023-01-18T04:25:25.591Z,412.65
2023-01-18T04:26:25.593Z,411.73
2023-01-18T04:27:25.600Z,412.01
2023-01-18T04:28:25.645Z,412.1
2023-01-18T04:29:25.612Z,411.84
2023-01-18T04:30:25.601Z,411.06
2023-01-18T04:31:25.677Z,412.08
2023-01-18T04:32:25.613Z,411.26
2023-01-18T04:33:25.626Z,411.49
2023-01-18T04:34:28.433Z,412.55
2023-01-18T04:35:25.615Z,411.65
2023-01-18T04:36:25.611Z,411.47
2023-01-18T04:37:25.617Z,411.49
2023-01-18T04:38:25.633Z,411.47
2023-01-18T04:39:25.615Z,410.85
2023-01-18T04:40:25.633Z,410.64
2023-01-18T04:41:25.625Z,411.06
2023-01-18T04:42:25.624Z,411.72
2023-01-18T04:43:25.646Z,411.45
2023-01-18T04:44:25.759Z,411.85
2023-01-18T04:45:28.678Z,412.09
2023-01-18T04:46:25.669Z,412.7
2023-01-18T04:47:25.644Z,413.5
2023-01-18T04:48:25.650Z,414.35
2023-01-18T04:49:25.639Z,414.21
2023-01-18T04:50:25.637Z,414.42
2023-01-18T04:51:25.633Z,414.84
2023-01-18T04:52:25.642Z,414.63
2023-01-18T04:53:25.663Z,414.65
2023-01-18T04:54:25.638Z,414.4
2023-01-18T04:55:25.644Z,414.02
2023-01-18T04:56:25.641Z,414.49
2023-01-18T04:57:25.649Z,415.11
2023-01-18T04:58:25.678Z,415.15
2023-01-18T04:59:25.651Z,414.92
2023-01-18T05:00:25.708Z,416
2023-01-18T05:01:26.806Z,416.01
2023-01-18T05:02:25.704Z,416.48
2023-01-18T05:03:25.675Z,416.65
2023-01-18T05:04:25.653Z,417.29
2023-01-18T05:05:26.450Z,417.09
2023-01-18T05:06:25.676Z,417.53
2023-01-18T05:07:25.672Z,418.16
2023-01-18T05:08:25.691Z,417.55
2023-01-18T05:09:25.661Z,418.22
2023-01-18T05:10:25.665Z,417.86
2023-01-18T05:11:25.680Z,418.04
2023-01-18T05:12:25.671Z,418.68
2023-01-18T05:13:25.721Z,418.3
2023-01-18T05:14:25.682Z,418.35
2023-01-18T05:15:25.676Z,417.95
2023-01-18T05:16:25.756Z,417.33
2023-01-18T05:17:25.683Z,418.43
2023-01-18T05:18:25.701Z,418.84
2023-01-18T05:19:25.679Z,418.63
2023-01-18T05:20:25.686Z,419.11
2023-01-18T05:21:25.695Z,417.86
2023-01-18T05:22:25.705Z,417.28
2023-01-18T05:23:25.726Z,417.08
2023-01-18T05:24:27.151Z,417.57
2023-01-18T05:25:25.693Z,417.94
2023-01-18T05:26:25.690Z,419.24
2023-01-18T05:27:25.803Z,419.42
2023-01-18T05:28:25.717Z,419.28
2023-01-18T05:29:25.702Z,419.54
2023-01-18T05:30:25.691Z,418.91
2023-01-18T05:31:25.788Z,420.02
2023-01-18T05:32:25.728Z,419.8
2023-01-18T05:33:25.730Z,419.82
2023-01-18T05:34:25.700Z,420.63
2023-01-18T05:35:25.708Z,420.38
2023-01-18T05:36:25.713Z,420.43
2023-01-18T05:37:25.707Z,420.49
2023-01-18T05:38:25.743Z,419.62
2023-01-18T05:39:25.779Z,420.24
2023-01-18T05:40:25.722Z,419.84
2023-01-18T05:41:25.722Z,419.68
2023-01-18T05:42:25.717Z,419.5
2023-01-18T05:43:25.735Z,419.45
2023-01-18T05:44:25.715Z,419.27
2023-01-18T05:45:25.819Z,418.86
2023-01-18T05:46:25.728Z,419.48
2023-01-18T05:47:25.730Z,419.69
2023-01-18T05:48:25.779Z,419.7
2023-01-18T05:49:25.727Z,419.24
2023-01-18T05:50:25.729Z,420.06
2023-01-18T05:51:25.746Z,420.26
2023-01-18T05:52:25.741Z,419.9
2023-01-18T05:53:25.761Z,420.35
2023-01-18T05:54:25.730Z,420.17
2023-01-18T05:55:25.734Z,421.21
2023-01-18T05:56:25.741Z,420.58
2023-01-18T05:57:25.739Z,420.4
2023-01-18T05:58:25.770Z,420.59
2023-01-18T05:59:25.746Z,421.05
2023-01-18T06:00:25.764Z,421.22
2023-01-18T06:01:25.818Z,421.66
2023-01-18T06:02:25.743Z,421.36
2023-01-18T06:03:25.780Z,420.84
2023-01-18T06:04:25.829Z,421.37
2023-01-18T06:05:25.755Z,419.58
2023-01-18T06:06:25.750Z,419.13
2023-01-18T06:07:25.792Z,418.47
2023-01-18T06:08:25.785Z,417.3
2023-01-18T06:09:25.767Z,417.41
2023-01-18T06:10:25.940Z,418.08
2023-01-18T06:11:25.773Z,418.76
2023-01-18T06:12:25.771Z,419.11
2023-01-18T06:13:25.804Z,419.39
2023-01-18T06:14:25.761Z,419.8
2023-01-18T06:15:25.770Z,420.02
2023-01-18T06:16:25.785Z,419.21
2023-01-18T06:17:25.779Z,419.38
2023-01-18T06:18:25.806Z,420.28
2023-01-18T06:19:25.770Z,420.28
2023-01-18T06:20:25.806Z,419.87
2023-01-18T06:21:25.781Z,419.98
2023-01-18T06:22:25.783Z,420.32
2023-01-18T06:23:25.809Z,419.68
2023-01-18T06:24:25.787Z,420.22
2023-01-18T06:25:25.783Z,420.16
2023-01-18T06:26:25.792Z,420.32
2023-01-18T06:27:25.783Z,420.05
2023-01-18T06:28:25.813Z,419.57
2023-01-18T06:29:25.793Z,420.31
2023-01-18T06:30:25.913Z,419.68
2023-01-18T06:31:25.829Z,419.88
2023-01-18T06:32:25.800Z,419.98
2023-01-18T06:33:25.823Z,419.39
2023-01-18T06:34:25.798Z,418.23
2023-01-18T06:35:25.808Z,418.91
2023-01-18T06:36:25.828Z,417.85
2023-01-18T06:37:25.827Z,417.44
2023-01-18T06:38:25.827Z,416.87
2023-01-18T06:39:28.722Z,417.03
2023-01-18T06:40:25.813Z,416.03
2023-01-18T06:41:25.816Z,416.68
2023-01-18T06:42:25.806Z,416.29
2023-01-18T06:43:25.834Z,416.05
2023-01-18T06:44:25.820Z,416.32
2023-01-18T06:45:25.823Z,416.3
2023-01-18T06:46:26.159Z,415.53
2023-01-18T06:47:25.823Z,416.34
2023-01-18T06:48:25.844Z,416.61
2023-01-18T06:49:25.827Z,416.42
2023-01-18T06:50:28.867Z,416.23
2023-01-18T06:51:25.832Z,416.19
2023-01-18T06:52:25.850Z,416.27
2023-01-18T06:53:25.844Z,415.4
2023-01-18T06:54:25.839Z,416.53
2023-01-18T06:55:25.833Z,416.37
2023-01-18T06:56:25.827Z,416.59
2023-01-18T06:57:25.829Z,416.81
2023-01-18T06:58:25.927Z,416.86
2023-01-18T06:59:25.838Z,416.6
2023-01-18T07:00:25.834Z,416.55
2023-01-18T07:01:28.687Z,416.73
2023-01-18T07:02:25.840Z,417.15
2023-01-18T07:03:25.870Z,417.1
2023-01-18T07:04:25.887Z,417.06
2023-01-18T07:05:25.843Z,417.12
2023-01-18T07:06:25.846Z,417.19
2023-01-18T07:07:25.846Z,418.08
2023-01-18T07:08:25.898Z,418.69
2023-01-18T07:09:25.854Z,418.31
2023-01-18T07:10:25.864Z,418.52
2023-01-18T07:11:25.867Z,418.52
2023-01-18T07:12:28.747Z,418.18
2023-01-18T07:13:25.934Z,418.15
2023-01-18T07:14:26.343Z,418.35
2023-01-18T07:15:26.347Z,418.86
2023-01-18T07:16:26.436Z,418.41
2023-01-18T07:17:26.368Z,418.82
2023-01-18T07:18:26.547Z,419.13
2023-01-18T07:19:29.371Z,419.3
2023-01-18T07:20:26.374Z,419.21
2023-01-18T07:21:26.368Z,419.21
2023-01-18T07:22:28.919Z,418.83
2023-01-18T07:23:26.376Z,419.45
2023-01-18T07:24:29.331Z,418.65
2023-01-18T07:25:25.999Z,418.94
2023-01-18T07:26:26.065Z,418.51
2023-01-18T07:27:26.199Z,418.13
2023-01-18T07:28:26.209Z,416.98
2023-01-18T07:29:26.211Z,416.39
2023-01-18T07:30:26.214Z,416.49
2023-01-18T07:31:26.271Z,416.21
2023-01-18T07:32:28.828Z,415.44
2023-01-18T07:33:26.236Z,416.47
2023-01-18T07:34:26.181Z,417.09
2023-01-18T07:35:26.231Z,416.06
2023-01-18T07:36:26.279Z,416.53
2023-01-18T07:37:29.271Z,415.93
2023-01-18T07:38:26.213Z,415.12
2023-01-18T07:39:26.223Z,415.15
2023-01-18T07:40:26.269Z,414.5
2023-01-18T07:41:26.691Z,414.04
2023-01-18T07:42:25.904Z,414.09
2023-01-18T07:43:26.206Z,413.71
2023-01-18T07:44:26.199Z,414.72
2023-01-18T07:45:26.218Z,414.76
2023-01-18T07:46:26.333Z,415.38
2023-01-18T07:47:26.199Z,415.38
2023-01-18T07:48:26.280Z,416.47
2023-01-18T07:49:26.246Z,417.11
2023-01-18T07:50:26.262Z,416.76
2023-01-18T07:51:26.243Z,416.36
2023-01-18T07:52:26.261Z,416.11
2023-01-18T07:53:26.278Z,417.04
2023-01-18T07:54:26.329Z,417.07
2023-01-18T07:55:29.001Z,417.07
2023-01-18T07:56:25.948Z,416.95
2023-01-18T07:57:25.935Z,418.02
2023-01-18T07:58:25.925Z,417.54
2023-01-18T07:59:25.929Z,418.35
2023-01-18T08:00:25.939Z,419.48
2023-01-18T08:01:26.055Z,419.3
2023-01-18T08:02:26.046Z,419.06
2023-01-18T08:03:25.940Z,419.27
2023-01-18T08:04:25.944Z,419.86
2023-01-18T08:05:25.939Z,420.55
2023-01-18T08:06:25.955Z,420.52
2023-01-18T08:07:25.957Z,420.72
2023-01-18T08:08:25.945Z,420.94
2023-01-18T08:09:25.957Z,421.16
2023-01-18T08:10:25.968Z,421.61
2023-01-18T08:11:26.015Z,421.56
2023-01-18T08:12:25.960Z,421.8
2023-01-18T08:13:25.959Z,421.84
2023-01-18T08:14:25.957Z,422.09
2023-01-18T08:15:25.959Z,422.5
2023-01-18T08:16:25.963Z,421.9
2023-01-18T08:17:25.971Z,422.77
2023-01-18T08:18:26.051Z,422.91
2023-01-18T08:19:25.959Z,422.98
2023-01-18T08:20:25.963Z,424.02
2023-01-18T08:21:25.975Z,423.84
2023-01-18T08:22:25.982Z,424
2023-01-18T08:23:25.974Z,423.43
2023-01-18T08:24:25.967Z,422.76
2023-01-18T08:25:26.008Z,422.77
2023-01-18T08:26:25.980Z,423.25
2023-01-18T08:27:27.301Z,423.24
2023-01-18T08:28:25.989Z,422.82
2023-01-18T08:29:25.982Z,423.29
2023-01-18T08:30:25.985Z,424.56
2023-01-18T08:31:26.051Z,424.44
2023-01-18T08:32:26.026Z,424.2
2023-01-18T08:33:25.983Z,424.44
2023-01-18T08:34:25.984Z,424.01
2023-01-18T08:35:25.994Z,423.28
2023-01-18T08:36:25.997Z,422.99
2023-01-18T08:37:26.118Z,422.83
2023-01-18T08:38:25.990Z,423.08
2023-01-18T08:39:25.997Z,423.46
2023-01-18T08:40:25.993Z,423.93
2023-01-18T08:41:25.997Z,424.56
2023-01-18T08:42:26.041Z,424.79
2023-01-18T08:43:26.033Z,424.32
2023-01-18T08:44:26.006Z,424.42
2023-01-18T08:45:26.009Z,425.07
2023-01-18T08:46:26.091Z,424.82
2023-01-18T08:47:26.007Z,425.62
2023-01-18T08:48:26.025Z,425.83
2023-01-18T08:49:26.022Z,426.49
2023-01-18T08:50:26.055Z,426.49
2023-01-18T08:51:26.175Z,426.64
2023-01-18T08:52:26.010Z,426.44
2023-01-18T08:53:26.022Z,427.29
2023-01-18T08:54:26.028Z,427.75
2023-01-18T08:55:26.015Z,427.74
2023-01-18T08:56:26.019Z,427.34
2023-01-18T08:57:26.024Z,427.33
2023-01-18T08:58:26.026Z,427.77
2023-01-18T08:59:26.091Z,427.61
2023-01-18T09:00:27.036Z,427.61
2023-01-18T09:01:26.141Z,427.86
2023-01-18T09:02:26.073Z,427.3
2023-01-18T09:03:26.031Z,427.39
2023-01-18T09:04:26.029Z,427.07
2023-01-18T09:05:26.030Z,427.46
2023-01-18T09:06:28.799Z,427.84
2023-01-18T09:07:26.037Z,428.14
2023-01-18T09:08:26.041Z,428.14
2023-01-18T09:09:26.038Z,429.44
2023-01-18T09:10:26.095Z,429.61
2023-01-18T09:11:26.051Z,430.26
2023-01-18T09:12:26.049Z,430.69
2023-01-18T09:13:26.053Z,432.11
2023-01-18T09:14:26.058Z,431.96
2023-01-18T09:15:26.085Z,431.48
2023-01-18T09:16:26.169Z,432.54
2023-01-18T09:17:28.936Z,432.56
2023-01-18T09:18:26.061Z,433.06
2023-01-18T09:19:26.059Z,434.45
2023-01-18T09:20:26.140Z,436.71
2023-01-18T09:21:26.066Z,438.04
2023-01-18T09:22:26.065Z,437.61
2023-01-18T09:23:26.062Z,438.4
2023-01-18T09:24:26.088Z,438.65
2023-01-18T09:25:26.066Z,439.39
2023-01-18T09:26:26.069Z,439.71
2023-01-18T09:27:26.067Z,440.3
2023-01-18T09:28:29.202Z,441.09
2023-01-18T09:29:26.094Z,443.34
2023-01-18T09:30:26.069Z,444.82
2023-01-18T09:31:26.169Z,446.87
2023-01-18T09:32:26.084Z,448.92
2023-01-18T09:33:36.827Z,450.13
2023-01-18T09:34:26.106Z,451.36
2023-01-18T09:35:26.084Z,452.04
2023-01-18T09:36:26.087Z,453.75
2023-01-18T09:37:26.084Z,453.83
2023-01-18T09:38:26.090Z,454.62
2023-01-18T09:39:29.141Z,454.8
2023-01-18T09:40:26.091Z,455.53
2023-01-18T09:41:26.095Z,455.74
2023-01-18T09:42:26.090Z,456.93
2023-01-18T09:43:26.097Z,456.85
2023-01-18T09:44:26.096Z,457.13
2023-01-18T09:45:26.104Z,456.8
2023-01-18T09:46:26.130Z,456.61
2023-01-18T09:47:26.127Z,456.28
2023-01-18T09:48:26.108Z,456.68
2023-01-18T09:49:26.105Z,456.28
2023-01-18T09:50:26.111Z,455.92
2023-01-18T09:51:26.114Z,455.75
2023-01-18T09:52:26.114Z,455.83
2023-01-18T09:53:26.114Z,455.42
2023-01-18T09:54:26.117Z,454.67
2023-01-18T09:55:26.117Z,454.88
2023-01-18T09:56:26.121Z,454.94
2023-01-18T09:57:26.122Z,455.58
2023-01-18T09:58:26.134Z,454.97
2023-01-18T09:59:26.218Z,454.63
2023-01-18T10:00:26.118Z,454.85
2023-01-18T10:01:26.219Z,454.09
2023-01-18T10:02:26.163Z,454.15
2023-01-18T10:03:26.153Z,453.82
2023-01-18T10:04:26.138Z,452.53
2023-01-18T10:05:26.131Z,451.62
2023-01-18T10:06:26.131Z,450.68
2023-01-18T10:07:26.128Z,449.83
2023-01-18T10:08:26.139Z,449.45
2023-01-18T10:09:26.132Z,448.57
2023-01-18T10:10:26.214Z,448.31
2023-01-18T10:11:26.144Z,447.6
2023-01-18T10:12:26.162Z,446.55
2023-01-18T10:13:26.158Z,446.87
2023-01-18T10:14:26.155Z,446.21
2023-01-18T10:15:26.169Z,446.6
2023-01-18T10:16:26.274Z,446.93
2023-01-18T10:17:26.143Z,447.03
2023-01-18T10:18:26.152Z,447.29
2023-01-18T10:19:26.312Z,445.22
2023-01-18T10:20:26.159Z,444.72
2023-01-18T10:21:26.181Z,443.85
2023-01-18T10:22:29.150Z,442.46
2023-01-18T10:23:26.157Z,441.92
2023-01-18T10:24:26.159Z,441.82
2023-01-18T10:25:26.176Z,440.89
2023-01-18T10:26:26.175Z,441.33
2023-01-18T10:27:26.157Z,440.67
2023-01-18T10:28:26.221Z,440.59
2023-01-18T10:29:26.175Z,440.71
2023-01-18T10:30:26.172Z,440.84
2023-01-18T10:31:26.196Z,440.2
2023-01-18T10:32:26.179Z,439.87
2023-01-18T10:33:26.223Z,439.47
2023-01-18T10:34:26.189Z,440.3
2023-01-18T10:35:26.208Z,440.12
2023-01-18T10:36:26.295Z,440.31
2023-01-18T10:37:26.187Z,440.58
2023-01-18T10:38:26.181Z,441.4
2023-01-18T10:39:26.197Z,441.43
2023-01-18T10:40:26.206Z,441.2
2023-01-18T10:41:26.184Z,441.21
2023-01-18T10:42:26.183Z,442.63
2023-01-18T10:43:26.192Z,443.65
2023-01-18T10:44:26.189Z,444.07
2023-01-18T10:45:26.276Z,444.49
2023-01-18T10:46:26.190Z,445.3
2023-01-18T10:47:26.230Z,446.15
2023-01-18T10:48:26.208Z,446.61
2023-01-18T10:49:26.203Z,446.23
2023-01-18T10:50:26.200Z,447.43
2023-01-18T10:51:26.229Z,446.62
2023-01-18T10:52:26.231Z,446.38
2023-01-18T10:53:26.204Z,447.06
2023-01-18T10:54:26.210Z,446.08
2023-01-18T10:55:26.214Z,445.74
2023-01-18T10:56:26.212Z,445.96
2023-01-18T10:57:26.214Z,445.96
2023-01-18T10:58:26.215Z,445.54
2023-01-18T10:59:26.213Z,443.97
2023-01-18T11:00:26.213Z,443.13
2023-01-18T11:01:26.409Z,442.2
2023-01-18T11:02:26.250Z,441.98
2023-01-18T11:03:26.216Z,441.24
2023-01-18T11:04:26.282Z,440.81
2023-01-18T11:05:26.254Z,441.03
2023-01-18T11:06:26.245Z,440.99
2023-01-18T11:07:26.268Z,441.46
2023-01-18T11:08:26.232Z,441.34
2023-01-18T11:09:26.259Z,440.48
2023-01-18T11:10:27.298Z,440.05
2023-01-18T11:11:26.274Z,440.23
2023-01-18T11:12:26.349Z,439.66
2023-01-18T11:13:26.249Z,438.93
2023-01-18T11:14:26.254Z,438.91
2023-01-18T11:15:26.352Z,439.58
2023-01-18T11:16:26.303Z,438.96
2023-01-18T11:17:26.247Z,439.41
2023-01-18T11:18:26.243Z,438.98
2023-01-18T11:19:26.247Z,440.46
2023-01-18T11:20:26.276Z,440.63
2023-01-18T11:21:26.255Z,441.09
2023-01-18T11:22:26.245Z,441.12
2023-01-18T11:23:26.278Z,440.15
2023-01-18T11:24:26.256Z,438.78
2023-01-18T11:25:26.323Z,437.55
2023-01-18T11:26:26.297Z,437.73
2023-01-18T11:27:26.300Z,437.14
2023-01-18T11:28:26.311Z,437.62
2023-01-18T11:29:28.466Z,438.62
2023-01-18T11:30:26.324Z,439.17
2023-01-18T11:31:29.329Z,441.35
2023-01-18T11:32:26.307Z,441.3
2023-01-18T11:33:29.433Z,442.93
2023-01-18T11:34:26.269Z,444.36
2023-01-18T11:35:26.328Z,445.13
2023-01-18T11:36:26.274Z,446.57
2023-01-18T11:37:26.269Z,446.6
2023-01-18T11:38:26.279Z,446.58
2023-01-18T11:39:26.309Z,446.57
2023-01-18T11:40:26.324Z,446.61
2023-01-18T11:41:26.318Z,447.26
2023-01-18T11:42:26.321Z,447.83
2023-01-18T11:43:26.303Z,449.31
2023-01-18T11:44:29.348Z,449.88
2023-01-18T11:45:27.274Z,450.58
2023-01-18T11:46:26.359Z,451.79
2023-01-18T11:47:27.319Z,452.08
2023-01-18T11:48:26.323Z,452.24
2023-01-18T11:49:26.318Z,452.68
2023-01-18T11:50:26.454Z,452.69
2023-01-18T11:51:26.330Z,452.96
2023-01-18T11:52:26.341Z,452.3
2023-01-18T11:53:26.339Z,452.92
2023-01-18T11:54:26.306Z,453.35
2023-01-18T11:55:28.235Z,452.98
2023-01-18T11:56:26.315Z,452.74
2023-01-18T11:57:26.330Z,453.87
2023-01-18T11:58:26.337Z,453.6
2023-01-18T11:59:26.332Z,453.45
2023-01-18T12:00:26.344Z,453.64
2023-01-18T12:01:26.350Z,452.43
2023-01-18T12:02:26.389Z,452.23
2023-01-18T12:03:26.379Z,452.29
2023-01-18T12:04:26.346Z,452.32
2023-01-18T12:05:26.353Z,452.29
2023-01-18T12:06:29.213Z,452.96
2023-01-18T12:07:26.359Z,452.78
2023-01-18T12:08:26.470Z,452.16
2023-01-18T12:09:26.345Z,453.05
2023-01-18T12:10:26.352Z,452.88
2023-01-18T12:11:26.410Z,452.7
2023-01-18T12:12:26.365Z,452.37
2023-01-18T12:13:26.344Z,451.96
2023-01-18T12:14:26.335Z,451.79
2023-01-18T12:15:26.343Z,450.99
2023-01-18T12:16:26.386Z,449.19
2023-01-18T12:17:26.358Z,448.88
2023-01-18T12:18:26.363Z,447.81
2023-01-18T12:19:26.365Z,447.86
2023-01-18T12:20:26.452Z,448.51
2023-01-18T12:21:26.452Z,448.28
2023-01-18T12:22:26.378Z,447.87
2023-01-18T12:23:26.471Z,447.49
2023-01-18T12:24:26.378Z,447.92
2023-01-18T12:25:26.381Z,447.12
2023-01-18T12:26:26.456Z,446.73
2023-01-18T12:27:26.416Z,445.99
2023-01-18T12:28:26.401Z,446.07
2023-01-18T12:29:26.367Z,444.81
2023-01-18T12:30:26.412Z,444.84